Time;durP1;ratioP1;P1;durP2;ratioP2;P2;SDS_P1;SDS_P2;PMS_P1;PMS_P2;Temp;Humidity;BMP_temperature;BMP_pressure;BME280_temperature;BME280_humidity;BME280_pressure;Samples;Min_cycle;Max_cycle;Signal;HPM_P1;HPM_P2
2022/02/25 00:02:08;;;;;;;6.07;1.13;;;;;;;13.97;42.73;99469.81;5092162;28;20497;-53
2022/02/25 00:04:34;;;;;;;4.50;1.55;;;;;;;13.95;42.15;99477.13;5092058;28;20028;-53
2022/02/25 00:07:00;;;;;;;8.13;1.40;;;;;;;13.82;42.10;99480.53;5092076;28;20481;-54
2022/02/25 00:09:26;;;;;;;3.70;0.90;;;;;;;13.72;42.79;99477.47;5073910;28;20028;-53
2022/02/25 00:11:52;;;;;;;7.38;1.20;;;;;;;13.65;42.88;99474.03;5092094;28;20028;-53
2022/02/25 00:14:18;;;;;;;10.25;1.65;;;;;;;13.53;42.87;99479.88;5073965;28;20110;-53
2022/02/25 00:16:44;;;;;;;4.13;1.27;;;;;;;13.46;43.15;99480.88;5073843;28;20427;-53
2022/02/25 00:19:10;;;;;;;6.18;2.88;;;;;;;13.52;42.37;99477.44;5091998;28;20024;-53
2022/02/25 00:21:35;;;;;;;10.70;4.28;;;;;;;13.69;42.14;99476.06;5091917;28;20023;-53
2022/02/25 00:24:01;;;;;;;9.00;6.13;;;;;;;13.86;41.86;99470.41;5091944;28;20024;-53
2022/02/25 00:26:27;;;;;;;9.13;2.60;;;;;;;13.92;41.33;99475.69;5091554;28;20035;-51
2022/02/25 00:28:52;;;;;;;4.68;1.77;;;;;;;13.57;41.78;99469.75;5091938;28;20033;-52
2022/02/25 00:31:18;;;;;;;4.03;1.30;;;;;;;13.35;42.44;99480.47;5073697;28;20051;-52
2022/02/25 00:33:44;;;;;;;3.63;0.85;;;;;;;13.30;42.81;99477.63;5091452;28;20528;-52
2022/02/25 00:36:10;;;;;;;2.88;0.70;;;;;;;13.38;42.90;99484.50;5091835;28;20028;-52
2022/02/25 00:38:35;;;;;;;7.85;1.27;;;;;;;13.25;43.15;99481.81;5091772;28;20024;-53
2022/02/25 00:41:02;;;;;;;5.88;1.52;;;;;;;13.15;43.97;99484.81;5091745;28;20031;-53
2022/02/25 00:43:27;;;;;;;4.18;0.95;;;;;;;13.11;44.05;99488.88;5073526;28;20028;-53
2022/02/25 00:45:53;;;;;;;4.00;0.80;;;;;;;13.19;44.21;99486.06;5073462;28;20025;-53
2022/02/25 00:48:19;;;;;;;7.07;1.50;;;;;;;13.34;44.01;99491.19;5091705;28;20016;-53
2022/02/25 00:50:45;;;;;;;3.72;0.98;;;;;;;13.34;43.37;99478.84;5091700;28;20108;-53
2022/02/25 00:53:11;;;;;;;8.07;1.60;;;;;;;13.48;43.38;99478.84;5091657;28;20091;-53
2022/02/25 00:55:37;;;;;;;6.40;1.50;;;;;;;13.74;43.35;99478.94;5073426;28;20396;-53
2022/02/25 00:58:03;;;;;;;9.50;0.88;;;;;;;14.02;42.72;99477.09;5091657;28;20028;-53
2022/02/25 01:00:30;;;;;;;4.20;1.38;;;;;;;14.17;42.07;99481.16;5091562;28;20393;-53
2022/02/25 01:02:55;;;;;;;5.70;1.00;;;;;;;14.28;41.72;99474.44;5073380;28;20115;-53
2022/02/25 01:05:21;;;;;;;3.10;0.85;;;;;;;14.29;41.45;99478.72;5091498;28;20498;-53
2022/02/25 01:07:47;;;;;;;4.55;0.95;;;;;;;14.31;41.08;99476.69;5073375;28;20020;-53
2022/02/25 01:10:16;;;;;;;4.03;1.13;;;;;;;14.33;40.67;99472.00;5073303;28;20028;-53
2022/02/25 01:12:43;;;;;;;3.65;1.25;;;;;;;14.34;40.78;99467.53;5073298;28;20028;-50
2022/02/25 01:15:10;;;;;;;5.30;1.10;;;;;;;14.41;40.76;99465.72;5073289;28;20032;-51
2022/02/25 01:17:36;;;;;;;6.38;0.90;;;;;;;14.52;40.42;99458.97;5091413;28;20037;-50
2022/02/25 01:20:04;;;;;;;4.03;1.05;;;;;;;14.35;40.10;99448.84;5091392;28;20023;-51
2022/02/25 01:22:30;;;;;;;3.92;1.00;;;;;;;14.02;40.89;99461.28;5073179;28;20078;-51
2022/02/25 01:24:55;;;;;;;6.13;1.00;;;;;;;13.82;41.13;99459.44;5091470;28;20032;-51
2022/02/25 01:27:21;;;;;;;4.50;1.00;;;;;;;13.72;41.37;99461.66;5091090;28;20081;-50
2022/02/25 01:29:48;;;;;;;4.07;1.10;;;;;;;13.63;41.25;99463.69;5073058;28;20048;-50
2022/02/25 01:32:13;;;;;;;2.42;0.95;;;;;;;13.50;41.56;99466.28;5073090;28;20031;-51
2022/02/25 01:34:39;;;;;;;3.92;1.10;;;;;;;13.42;42.05;99467.31;5091076;28;20413;-51
2022/02/25 01:37:06;;;;;;;3.97;0.93;;;;;;;13.33;42.33;99473.75;5073053;28;20081;-51
2022/02/25 01:39:32;;;;;;;4.50;1.00;;;;;;;13.32;42.62;99472.13;5094889;28;20027;-51
2022/02/25 01:41:58;;;;;;;9.60;1.08;;;;;;;13.23;42.34;99475.94;5095115;28;20035;-51
2022/02/25 01:44:26;;;;;;;5.40;1.08;;;;;;;13.20;42.51;99482.41;5094771;28;20016;-51
2022/02/25 01:47:05;;;;;;;8.32;1.10;;;;;;;13.10;42.71;99474.03;5076433;28;20028;-51
2022/02/25 01:49:31;;;;;;;7.95;1.13;;;;;;;12.91;43.08;99470.34;5094672;28;20077;-50
2022/02/25 01:52:04;;;;;;;4.50;1.00;;;;;;;12.83;43.37;99479.22;5076406;28;20031;-50
2022/02/25 01:54:31;;;;;;;5.80;1.17;;;;;;;12.73;43.38;99478.75;5094591;28;20020;-51
2022/02/25 01:57:00;;;;;;;3.10;0.80;;;;;;;12.63;43.88;99481.72;5094572;28;20080;-50
2022/02/25 01:59:27;;;;;;;4.38;0.98;;;;;;;12.51;43.96;99478.81;5076275;28;20032;-51
2022/02/25 02:01:53;;;;;;;6.43;1.30;;;;;;;12.52;44.69;99484.94;5076303;28;20028;-50
2022/02/25 02:04:20;;;;;;;8.80;1.05;;;;;;;12.53;44.46;99482.06;5094425;28;20097;-50
2022/02/25 02:06:46;;;;;;;8.10;1.63;;;;;;;12.59;44.31;99485.75;5094323;28;20086;-50
2022/02/25 02:09:12;;;;;;;3.88;1.20;;;;;;;12.55;44.40;99482.69;5094401;28;20046;-50
2022/02/25 02:11:40;;;;;;;4.55;0.80;;;;;;;12.45;44.40;99482.22;5076064;28;20400;-51
2022/02/25 02:14:08;;;;;;;8.95;1.05;;;;;;;12.29;44.98;99483.34;5075937;28;20571;-50
2022/02/25 02:16:34;;;;;;;5.38;1.10;;;;;;;12.23;45.27;99483.28;5075918;28;20031;-50
2022/02/25 02:19:01;;;;;;;10.77;1.30;;;;;;;12.29;45.33;99487.78;5094146;28;20028;-50
2022/02/25 02:21:29;;;;;;;4.70;1.25;;;;;;;12.31;45.14;99486.59;5094077;28;20489;-50
2022/02/25 02:23:57;;;;;;;6.22;1.10;;;;;;;12.32;45.48;99497.94;5094052;28;20296;-50
2022/02/25 02:26:24;;;;;;;8.38;2.20;;;;;;;12.35;45.41;99494.91;5093849;28;20023;-50
2022/02/25 02:28:50;;;;;;;4.85;1.27;;;;;;;12.33;45.11;99502.19;5093983;28;20020;-50
2022/02/25 02:31:17;;;;;;;4.38;1.30;;;;;;;12.22;45.49;99497.47;5093831;28;20497;-50
2022/02/25 02:33:42;;;;;;;9.02;1.80;;;;;;;12.20;45.49;99508.19;5075530;28;20051;-50
2022/02/25 02:36:10;;;;;;;10.05;1.40;;;;;;;12.19;45.77;99506.53;5093703;28;20024;-50
2022/02/25 02:38:38;;;;;;;15.20;1.63;;;;;;;12.17;46.04;99501.50;5075522;28;20462;-50
2022/02/25 02:41:05;;;;;;;7.63;1.27;;;;;;;12.08;45.84;99502.63;5093711;28;20026;-50
2022/02/25 02:43:31;;;;;;;4.57;1.33;;;;;;;11.99;46.32;99493.22;5093634;28;20027;-50
2022/02/25 02:45:57;;;;;;;7.72;1.40;;;;;;;11.99;46.74;99509.84;5093516;28;20557;-50
2022/02/25 02:48:23;;;;;;;4.70;1.23;;;;;;;12.08;46.52;99499.19;5093452;28;20028;-50
2022/02/25 02:50:49;;;;;;;3.88;1.38;;;;;;;12.18;46.20;99505.72;5075352;28;20031;-51
2022/02/25 02:53:15;;;;;;;5.55;1.55;;;;;;;12.23;46.40;99512.25;5093438;28;20062;-50
2022/02/25 02:55:45;;;;;;;5.70;1.58;;;;;;;12.22;46.22;99508.81;5075175;28;20052;-50
2022/02/25 02:58:12;;;;;;;4.72;1.20;;;;;;;12.27;46.27;99510.84;5093343;28;20020;-50
2022/02/25 03:00:39;;;;;;;10.20;1.42;;;;;;;12.16;46.17;99512.19;5075091;28;20397;-50
2022/02/25 03:03:06;;;;;;;1.92;1.05;;;;;;;12.08;46.99;99520.22;5075133;28;20031;-50
2022/02/25 03:05:32;;;;;;;5.70;1.10;;;;;;;12.11;46.83;99518.03;5093116;28;20375;-50
2022/02/25 03:07:58;;;;;;;9.82;1.27;;;;;;;11.98;46.87;99515.28;5074946;28;20027;-50
2022/02/25 03:10:25;;;;;;;6.70;1.20;;;;;;;11.95;47.34;99516.47;5075119;28;20024;-50
2022/02/25 03:12:50;;;;;;;7.03;1.50;;;;;;;11.94;47.46;99516.66;5074929;28;20063;-49
2022/02/25 03:15:16;;;;;;;6.85;1.17;;;;;;;11.86;47.64;99516.75;5074780;28;20116;-50
2022/02/25 03:17:43;;;;;;;8.32;2.25;;;;;;;11.89;47.77;99519.03;5074669;28;20110;-50
2022/02/25 03:20:10;;;;;;;7.78;2.13;;;;;;;11.83;47.95;99514.50;5092933;28;20020;-50
2022/02/25 03:22:37;;;;;;;6.85;1.70;;;;;;;11.77;48.01;99516.06;5092907;28;20028;-50
2022/02/25 03:25:04;;;;;;;7.90;1.48;;;;;;;11.75;48.18;99520.69;5074543;28;20020;-50
2022/02/25 03:27:30;;;;;;;10.98;1.58;;;;;;;11.80;48.29;99524.38;5074439;28;20092;-51
2022/02/25 03:29:57;;;;;;;7.22;1.85;;;;;;;11.74;48.11;99530.41;5092813;28;20032;-50
2022/02/25 03:32:24;;;;;;;7.32;1.70;;;;;;;11.65;48.38;99533.31;5092682;28;20024;-50
2022/02/25 03:34:50;;;;;;;4.72;1.60;;;;;;;11.65;48.53;99531.53;5055191;28;20052;-50
2022/02/25 03:37:17;;;;;;;8.18;1.52;;;;;;;11.67;48.87;99539.22;5054618;28;20025;-50
2022/02/25 03:39:42;;;;;;;7.60;1.13;;;;;;;11.75;48.38;99529.41;5054418;28;20037;-50
2022/02/25 03:42:08;;;;;;;9.27;1.40;;;;;;;11.76;48.85;99535.47;5072247;28;20520;-50
2022/02/25 03:44:34;;;;;;;6.25;1.45;;;;;;;11.86;48.43;99538.59;5072287;28;20027;-50
2022/02/25 03:47:00;;;;;;;5.43;1.65;;;;;;;11.68;48.14;99539.03;5072161;28;20020;-50
2022/02/25 03:49:26;;;;;;;5.28;1.77;;;;;;;11.51;48.75;99537.63;5054297;28;20022;-51
2022/02/25 03:51:52;;;;;;;6.05;1.50;;;;;;;11.58;49.05;99543.78;5072218;28;20390;-50
2022/02/25 03:54:18;;;;;;;10.85;1.98;;;;;;;11.69;48.88;99532.78;5072167;28;20592;-50
2022/02/25 03:56:44;;;;;;;10.07;1.65;;;;;;;11.76;48.78;99531.03;5054150;28;20033;-50
2022/02/25 03:59:10;;;;;;;8.48;2.45;;;;;;;11.78;48.48;99542.16;5054098;28;20456;-52
2022/02/25 04:01:35;;;;;;;13.65;1.95;;;;;;;11.79;48.63;99532.47;5053414;28;20028;-52
2022/02/25 04:04:01;;;;;;;7.20;1.33;;;;;;;11.83;48.93;99536.38;5071970;28;20397;-52
2022/02/25 04:06:27;;;;;;;7.57;1.90;;;;;;;11.89;48.54;99537.44;5071772;28;20446;-52
2022/02/25 04:08:55;;;;;;;7.53;2.63;;;;;;;11.78;48.44;99544.00;5053918;28;20020;-52
2022/02/25 04:11:21;;;;;;;5.95;1.70;;;;;;;11.61;48.50;99546.06;5071877;28;20039;-52
2022/02/25 04:13:48;;;;;;;10.27;1.77;;;;;;;11.52;49.03;99544.53;5071921;28;20024;-52
2022/02/25 04:16:14;;;;;;;9.23;2.05;;;;;;;11.42;49.12;99550.06;5071843;28;20397;-52
2022/02/25 04:18:41;;;;;;;11.50;1.67;;;;;;;11.33;49.59;99545.94;5053868;28;20028;-53
2022/02/25 04:21:06;;;;;;;12.73;2.55;;;;;;;11.34;49.47;99550.19;5071744;28;20028;-52
2022/02/25 04:23:32;;;;;;;9.90;1.17;;;;;;;11.42;49.46;99550.06;5071809;28;20077;-52
2022/02/25 04:25:58;;;;;;;13.10;1.80;;;;;;;11.43;49.21;99548.25;5071633;28;20432;-53
2022/02/25 04:28:24;;;;;;;6.18;1.88;;;;;;;11.34;49.37;99553.59;5071649;28;20032;-52
2022/02/25 04:30:50;;;;;;;9.13;2.35;;;;;;;11.15;49.51;99547.13;5071719;28;20043;-52
2022/02/25 04:33:16;;;;;;;10.18;2.30;;;;;;;10.94;50.20;99560.16;5053425;28;20090;-52
2022/02/25 04:35:42;;;;;;;8.13;2.20;;;;;;;10.93;50.42;99559.34;5071613;28;20103;-52
2022/02/25 04:38:08;;;;;;;15.48;1.85;;;;;;;10.92;50.48;99555.09;5071640;28;20532;-52
2022/02/25 04:40:35;;;;;;;10.48;1.67;;;;;;;10.86;50.42;99555.00;5071581;28;20107;-52
2022/02/25 04:43:02;;;;;;;6.78;1.70;;;;;;;10.86;50.51;99549.75;5071551;28;20027;-52
2022/02/25 04:45:28;;;;;;;14.00;1.83;;;;;;;10.76;50.37;99553.44;5053514;28;20048;-52
2022/02/25 04:47:55;;;;;;;14.60;1.88;;;;;;;10.68;50.65;99552.72;5071525;28;20056;-52
2022/02/25 04:50:22;;;;;;;8.75;1.63;;;;;;;10.68;50.78;99552.72;5071467;28;20023;-52
2022/02/25 04:52:47;;;;;;;13.52;1.50;;;;;;;10.73;50.68;99563.50;5071454;28;20024;-52
2022/02/25 04:55:13;;;;;;;9.75;2.45;;;;;;;10.78;50.88;99563.78;5053442;28;20508;-52
2022/02/25 04:57:40;;;;;;;11.13;2.75;;;;;;;10.83;50.91;99566.69;5071449;28;20024;-52
2022/02/25 05:00:10;;;;;;;5.68;1.73;;;;;;;10.95;51.10;99564.44;5071404;28;20096;-52
2022/02/25 05:02:41;;;;;;;13.27;2.05;;;;;;;11.16;50.65;99564.50;5071384;28;20029;-52
2022/02/25 05:05:07;;;;;;;13.68;1.85;;;;;;;11.18;50.63;99561.69;5053284;28;20070;-52
2022/02/25 05:07:33;;;;;;;10.35;2.00;;;;;;;11.19;50.72;99564.16;5071296;28;20032;-52
2022/02/25 05:09:58;;;;;;;9.48;1.95;;;;;;;11.35;50.53;99560.50;5053287;28;20025;-53
2022/02/25 05:12:24;;;;;;;15.05;1.60;;;;;;;11.51;50.05;99561.28;5053774;28;20067;-52
2022/02/25 05:20:24;;;;;;;21.92;2.67;;;;;;;11.68;49.70;99557.44;5075024;28;20035;-53
2022/02/25 05:22:53;;;;;;;17.50;2.28;;;;;;;11.81;49.73;99556.75;5074984;28;20039;-52
2022/02/25 05:25:19;;;;;;;13.02;1.80;;;;;;;11.88;49.34;99556.84;5056826;28;20406;-52
2022/02/25 05:27:45;;;;;;;11.35;2.33;;;;;;;11.90;48.87;99554.88;5074898;28;20086;-52
2022/02/25 05:30:12;;;;;;;15.93;1.88;;;;;;;11.85;48.91;99570.34;5056797;28;20017;-52
2022/02/25 05:32:37;;;;;;;9.05;1.90;;;;;;;11.77;48.63;99572.13;5074557;28;20024;-53
2022/02/25 05:35:03;;;;;;;4.38;1.58;;;;;;;11.64;49.02;99574.59;5074751;28;20082;-52
2022/02/25 05:37:29;;;;;;;8.07;1.85;;;;;;;11.46;48.79;99588.13;5074694;28;20104;-52
2022/02/25 05:39:55;;;;;;;12.85;2.08;;;;;;;11.37;49.42;99584.78;5074646;28;20051;-52
2022/02/25 05:42:22;;;;;;;8.50;1.73;;;;;;;11.41;49.50;99593.13;5074545;28;20017;-52
2022/02/25 05:44:47;;;;;;;10.20;1.70;;;;;;;11.49;49.27;99590.41;5074579;28;20487;-52
2022/02/25 05:47:13;;;;;;;12.23;1.80;;;;;;;11.51;49.02;99593.66;5074303;28;20025;-52
2022/02/25 05:49:38;;;;;;;9.38;1.92;;;;;;;11.37;49.08;99592.69;5074546;28;20020;-52
2022/02/25 05:52:04;;;;;;;17.30;2.47;;;;;;;11.32;49.37;99600.28;5056418;28;20103;-52
2022/02/25 05:54:30;;;;;;;12.93;1.77;;;;;;;11.24;49.50;99600.38;5074428;28;20056;-52
2022/02/25 05:56:56;;;;;;;6.68;1.50;;;;;;;11.11;49.44;99605.47;5074373;28;20397;-52
2022/02/25 05:59:21;;;;;;;8.38;1.75;;;;;;;10.85;49.65;99598.84;5056303;28;20074;-52
2022/02/25 06:01:47;;;;;;;10.10;2.05;;;;;;;10.60;50.61;99608.72;5074121;28;20017;-52
2022/02/25 06:04:13;;;;;;;8.52;3.00;;;;;;;10.53;50.44;99619.13;5074212;28;20107;-52
2022/02/25 06:06:38;;;;;;;7.00;1.50;;;;;;;10.51;50.70;99623.75;5056089;28;20024;-52
2022/02/25 06:09:04;;;;;;;7.57;1.67;;;;;;;10.65;50.41;99630.03;5074127;28;20393;-52
2022/02/25 06:11:30;;;;;;;8.68;2.70;;;;;;;10.71;50.15;99637.19;5074082;28;20027;-51
2022/02/25 06:13:55;;;;;;;10.85;1.65;;;;;;;10.68;49.89;99636.72;5056149;28;20097;-52
2022/02/25 06:16:21;;;;;;;11.43;2.00;;;;;;;10.50;50.16;99635.25;5073917;28;20112;-52
2022/02/25 06:18:46;;;;;;;9.18;1.98;;;;;;;10.35;50.35;99642.25;5073923;28;20025;-51
2022/02/25 06:21:12;;;;;;;11.32;2.20;;;;;;;10.19;50.82;99643.13;5055730;28;20024;-52
2022/02/25 06:23:38;;;;;;;12.93;1.92;;;;;;;10.14;51.06;99656.78;5073461;28;20027;-52
2022/02/25 06:26:03;;;;;;;14.18;2.22;;;;;;;10.12;51.00;99669.25;5073670;28;20021;-52
2022/02/25 06:28:31;;;;;;;6.75;2.00;;;;;;;10.26;50.87;99664.22;5055760;28;20028;-52
2022/02/25 06:30:57;;;;;;;9.70;2.00;;;;;;;10.36;50.58;99663.06;5073678;28;20024;-52
2022/02/25 06:33:22;;;;;;;7.97;2.63;;;;;;;10.46;50.08;99673.31;5055461;28;20048;-51
2022/02/25 06:35:48;;;;;;;12.57;2.10;;;;;;;10.31;50.15;99689.00;5055438;28;20401;-52
2022/02/25 06:38:13;;;;;;;9.98;2.17;;;;;;;10.15;50.16;99689.88;5073519;28;20025;-52
2022/02/25 06:40:39;;;;;;;8.23;2.03;;;;;;;10.10;50.18;99701.88;5073471;28;20474;-52
2022/02/25 06:43:05;;;;;;;13.18;2.10;;;;;;;10.09;50.47;99706.31;5073324;28;20060;-52
2022/02/25 06:45:31;;;;;;;11.75;1.70;;;;;;;10.18;50.52;99705.28;5073338;28;20024;-52
2022/02/25 06:47:56;;;;;;;6.13;1.95;;;;;;;10.25;50.46;99707.22;5073366;28;20025;-52
2022/02/25 06:50:22;;;;;;;14.77;2.55;;;;;;;10.33;49.88;99713.25;5073289;28;20024;-52
2022/02/25 06:52:48;;;;;;;8.68;2.10;;;;;;;10.29;49.81;99705.88;5073302;28;20055;-52
2022/02/25 06:55:16;;;;;;;12.57;2.40;;;;;;;10.33;49.90;99704.56;5073192;28;20067;-52
2022/02/25 06:57:42;;;;;;;8.30;1.83;;;;;;;10.43;49.46;99706.97;5055189;28;20048;-52
2022/02/25 07:00:11;;;;;;;10.65;1.77;;;;;;;10.59;49.35;99704.25;5073065;28;20078;-51
2022/02/25 07:02:37;;;;;;;8.13;2.42;;;;;;;10.78;48.96;99701.16;5073028;28;20508;-51
2022/02/25 07:05:04;;;;;;;10.88;2.08;;;;;;;10.94;48.79;99710.66;5055335;28;20197;-52
2022/02/25 07:07:30;;;;;;;6.75;2.70;;;;;;;11.00;48.59;99709.97;5054928;28;20025;-52
2022/02/25 07:09:56;;;;;;;12.57;2.67;;;;;;;11.95;47.56;99710.31;5072948;28;20085;-52
2022/02/25 07:12:22;;;;;;;12.32;1.92;;;;;;;12.91;45.01;99712.72;5072872;28;20024;-52
2022/02/25 07:14:49;;;;;;;9.63;2.75;;;;;;;13.78;43.73;99717.59;5072793;28;20037;-53
2022/02/25 07:17:15;;;;;;;17.42;3.78;;;;;;;14.43;42.09;99719.84;5072729;28;20036;-53
2022/02/25 07:19:40;;;;;;;10.45;2.58;;;;;;;14.74;40.86;99721.16;5072726;28;20386;-50
2022/02/25 07:22:06;;;;;;;12.38;2.55;;;;;;;14.97;40.17;99718.13;5054629;28;20028;-50
2022/02/25 07:24:32;;;;;;;12.13;2.28;;;;;;;15.34;39.33;99719.31;5072664;28;20081;-50
2022/02/25 07:26:57;;;;;;;11.25;1.90;;;;;;;15.86;38.60;99722.06;5054557;28;20082;-51
2022/02/25 07:29:23;;;;;;;6.63;2.17;;;;;;;15.58;38.33;99722.31;5072537;28;20107;-51
2022/02/25 07:31:49;;;;;;;8.38;2.10;;;;;;;15.12;38.96;99721.38;5072502;28;20029;-52
2022/02/25 07:34:15;;;;;;;12.77;2.03;;;;;;;14.51;39.95;99721.50;5086542;28;20048;-51
2022/02/25 07:36:40;;;;;;;13.23;2.30;;;;;;;13.79;40.89;99726.31;5091886;28;20048;-52
2022/02/25 07:39:06;;;;;;;10.60;2.63;;;;;;;13.50;41.92;99733.47;5074430;28;20024;-51
2022/02/25 07:41:32;;;;;;;9.48;2.65;;;;;;;13.45;41.82;99735.06;5092571;28;20020;-51
2022/02/25 07:43:57;;;;;;;9.57;2.50;;;;;;;13.23;42.34;99737.72;5074357;28;20028;-51
2022/02/25 07:46:23;;;;;;;13.27;2.25;;;;;;;13.35;42.16;99732.75;5074222;28;20028;-52
2022/02/25 07:48:49;;;;;;;12.25;2.42;;;;;;;13.52;42.07;99735.91;5092441;28;20035;-51
2022/02/25 07:51:15;;;;;;;20.95;11.30;;;;;;;14.38;40.49;99744.22;5092419;28;20032;-51
2022/02/25 07:53:41;;;;;;;47.47;15.82;;;;;;;14.85;39.01;99732.94;5092442;28;20030;-51
2022/02/25 07:56:07;;;;;;;21.67;8.57;;;;;;;15.22;38.19;99739.47;5092307;28;20056;-51
2022/02/25 07:58:33;;;;;;;90.97;15.55;;;;;;;15.23;38.20;99737.63;5092321;28;20051;-51
2022/02/25 08:00:59;;;;;;;73.03;10.70;;;;;;;15.66;37.66;99742.47;5074087;28;20496;-52
2022/02/25 08:03:25;;;;;;;48.47;6.28;;;;;;;15.75;36.69;99746.53;5092498;28;20035;-51
2022/02/25 08:05:51;;;;;;;56.50;9.15;;;;;;;15.32;37.17;99742.50;5092050;28;20012;-50
2022/02/25 08:08:18;;;;;;;112.13;17.15;;;;;;;15.33;37.21;99748.59;5074076;28;20028;-50
2022/02/25 08:10:44;;;;;;;97.43;13.57;;;;;;;15.32;36.97;99753.09;5092113;28;20020;-51
2022/02/25 08:13:10;;;;;;;56.13;10.65;;;;;;;15.67;36.50;99754.66;5073875;28;20032;-52
2022/02/25 08:15:36;;;;;;;74.10;10.75;;;;;;;16.20;36.04;99756.34;5092046;28;20028;-51
2022/02/25 08:18:08;;;;;;;49.40;7.20;;;;;;;16.04;35.88;99763.75;5092351;28;20038;-51
2022/02/25 08:20:36;;;;;;;69.85;11.45;;;;;;;15.99;36.04;99758.25;5092086;28;20035;-51
2022/02/25 08:23:02;;;;;;;46.83;6.65;;;;;;;16.20;34.88;99759.00;5092029;28;20039;-51
2022/02/25 08:25:29;;;;;;;73.53;10.95;;;;;;;15.91;35.33;99761.94;5091889;28;20097;-51
2022/02/25 08:27:55;;;;;;;27.73;4.15;;;;;;;15.86;35.52;99768.91;5091897;28;20103;-51
2022/02/25 08:30:21;;;;;;;40.25;11.23;;;;;;;15.50;35.94;99775.47;5091932;28;20100;-51
2022/02/25 08:32:49;;;;;;;34.45;7.18;;;;;;;14.90;36.51;99778.91;5073520;28;20077;-51
2022/02/25 08:35:16;;;;;;;28.13;5.47;;;;;;;14.34;37.89;99779.94;5071752;28;20040;-50
2022/02/25 08:37:43;;;;;;;22.80;3.88;;;;;;;14.07;38.55;99781.69;5071705;28;20477;-50
2022/02/25 08:40:10;;;;;;;27.27;8.55;;;;;;;14.08;38.62;99782.47;5053643;28;20024;-50
2022/02/25 08:42:37;;;;;;;57.85;30.13;;;;;;;14.10;38.40;99783.91;5053623;28;20469;-50
2022/02/25 08:45:05;;;;;;;40.38;9.52;;;;;;;14.50;37.73;99786.72;5071546;28;20024;-50
2022/02/25 08:47:31;;;;;;;44.10;6.97;;;;;;;14.55;37.60;99791.41;5074003;28;20369;-50
2022/02/25 08:49:57;;;;;;;25.15;4.68;;;;;;;15.53;36.97;99793.56;5075619;28;20031;-51
2022/02/25 08:52:23;;;;;;;16.52;3.05;;;;;;;15.98;35.25;99788.41;5075608;28;20108;-51
2022/02/25 08:54:50;;;;;;;17.17;2.83;;;;;;;15.97;34.53;99789.44;5075552;28;20503;-51
2022/02/25 08:57:16;;;;;;;15.75;2.90;;;;;;;15.34;35.59;99805.78;5075484;28;20056;-51
2022/02/25 08:59:42;;;;;;;16.80;2.58;;;;;;;15.33;35.78;99797.03;5075460;28;20051;-50
2022/02/25 09:02:09;;;;;;;10.68;2.25;;;;;;;15.12;36.42;99805.97;5075390;28;20032;-50
2022/02/25 09:04:35;;;;;;;12.48;2.55;;;;;;;15.60;35.40;99806.81;5075381;28;20024;-49
2022/02/25 09:07:01;;;;;;;11.10;2.35;;;;;;;15.28;35.57;99807.41;5057190;28;20021;-50
2022/02/25 09:09:26;;;;;;;12.00;3.15;;;;;;;15.92;34.86;99794.56;5057452;28;20047;-50
2022/02/25 09:11:52;;;;;;;13.98;2.72;;;;;;;16.11;34.12;99795.50;5075187;28;20031;-50
2022/02/25 09:14:19;;;;;;;15.85;3.03;;;;;;;17.49;32.60;99786.94;5075121;28;20024;-51
2022/02/25 09:16:45;;;;;;;9.15;2.95;;;;;;;18.85;30.22;99794.75;5057089;28;20043;-51
2022/02/25 09:19:10;;;;;;;12.35;2.97;;;;;;;18.16;29.77;99789.72;5075110;28;20021;-51
2022/02/25 09:21:36;;;;;;;13.38;2.40;;;;;;;17.90;30.63;99798.78;5074873;28;20028;-51
2022/02/25 09:24:04;;;;;;;17.13;3.38;;;;;;;19.09;29.00;99800.16;5074961;28;20048;-51
2022/02/25 09:26:31;;;;;;;6.90;2.00;;;;;;;19.06;28.71;99793.44;5074861;28;20025;-51
2022/02/25 09:28:58;;;;;;;18.13;2.50;;;;;;;19.70;27.25;99796.25;5056854;28;20087;-52
2022/02/25 09:31:25;;;;;;;14.38;3.70;;;;;;;19.10;26.69;99801.78;5074747;28;20028;-51
2022/02/25 09:33:51;;;;;;;9.50;2.13;;;;;;;19.32;25.39;99804.72;5074634;28;20418;-50
2022/02/25 09:36:16;;;;;;;13.73;2.58;;;;;;;18.70;27.04;99805.78;5074697;28;20016;-51
2022/02/25 09:38:42;;;;;;;14.23;2.72;;;;;;;18.15;27.90;99805.91;5074658;28;20074;-50
2022/02/25 09:41:08;;;;;;;12.40;1.90;;;;;;;17.58;27.77;99809.50;5056658;28;20024;-50
2022/02/25 09:43:35;;;;;;;8.48;1.95;;;;;;;18.04;28.26;99812.75;5056485;28;20028;-51
2022/02/25 09:46:06;;;;;;;12.88;1.95;;;;;;;18.73;25.70;99802.69;5074495;28;20048;-51
2022/02/25 09:48:33;;;;;;;13.75;2.80;;;;;;;17.68;26.45;99809.00;5074542;28;20017;-50
2022/02/25 09:50:59;;;;;;;12.80;3.00;;;;;;;16.83;28.65;99822.72;5074406;28;20029;-50
2022/02/25 09:53:25;;;;;;;15.60;2.75;;;;;;;16.73;28.44;99817.03;5074481;28;20025;-50
2022/02/25 09:55:51;;;;;;;12.75;2.78;;;;;;;16.41;29.07;99818.81;5074201;28;20090;-51
2022/02/25 09:58:17;;;;;;;12.13;2.05;;;;;;;16.04;30.02;99819.38;5073522;28;20801;-51
2022/02/25 10:00:43;;;;;;;18.35;2.53;;;;;;;15.99;30.24;99816.50;5074523;28;20024;-50
2022/02/25 10:03:15;;;;;;;12.10;2.00;;;;;;;15.61;30.18;99822.44;5074269;28;20078;-51
2022/02/25 10:05:42;;;;;;;16.77;2.90;;;;;;;15.19;30.87;99835.06;5074121;28;20092;-50
2022/02/25 10:08:18;;;;;;;13.32;2.05;;;;;;;16.53;30.37;99823.25;5074142;28;20024;-51
2022/02/25 10:10:46;;;;;;;13.98;2.10;;;;;;;18.02;26.89;99814.81;5074434;28;20094;-51
2022/02/25 10:13:14;;;;;;;8.10;2.10;;;;;;;19.35;25.33;99823.66;5074069;28;20020;-52
2022/02/25 10:15:42;;;;;;;10.65;2.28;;;;;;;19.39;24.71;99825.88;5056015;28;20021;-52
2022/02/25 10:18:12;;;;;;;12.35;2.17;;;;;;;18.50;25.94;99835.31;5074023;28;20056;-50
2022/02/25 10:20:39;;;;;;;18.38;2.55;;;;;;;17.65;27.20;99830.69;5055941;28;20021;-51
2022/02/25 10:23:24;;;;;;;13.13;2.88;;;;;;;17.45;27.54;99827.41;5073938;28;20444;-51
2022/02/25 10:25:50;;;;;;;9.18;2.17;;;;;;;17.08;27.61;99820.13;5073732;28;20137;-51
2022/02/25 10:28:27;;;;;;;12.40;2.97;;;;;;;16.35;28.49;99826.59;5073806;28;20448;-51
2022/02/25 10:31:12;;;;;;;9.30;2.13;;;;;;;17.01;28.09;99823.84;5073796;28;20032;-51
2022/02/25 10:33:38;;;;;;;12.90;2.63;;;;;;;16.86;27.24;99822.31;5080409;28;20040;-50
2022/02/25 10:36:04;;;;;;;12.23;2.22;;;;;;;16.07;27.62;99829.53;5093893;28;20032;-50
2022/02/25 10:38:36;;;;;;;9.23;1.98;;;;;;;15.35;28.63;99836.50;5093848;28;20021;-51
2022/02/25 10:41:03;;;;;;;12.27;2.25;;;;;;;14.84;29.01;99835.22;5075501;28;20059;-51
2022/02/25 10:43:29;;;;;;;9.32;1.77;;;;;;;14.54;29.16;99834.69;5093708;28;20366;-50
2022/02/25 10:45:57;;;;;;;15.88;2.88;;;;;;;14.33;29.77;99851.47;5093558;28;20043;-50
2022/02/25 10:48:31;;;;;;;8.80;1.60;;;;;;;14.09;29.78;99848.28;5093626;28;20016;-50
2022/02/25 10:51:05;;;;;;;5.63;1.50;;;;;;;15.03;29.01;99846.03;5093619;28;20016;-50
2022/02/25 10:53:32;;;;;;;17.45;2.38;;;;;;;16.74;26.02;99837.22;5075352;28;20035;-50
2022/02/25 10:56:41;;;;;;;15.73;2.00;;;;;;;17.96;24.96;99821.00;5093491;28;20374;-51
2022/02/25 10:59:11;;;;;;;23.33;2.33;;;;;;;18.84;23.08;99803.78;5054459;28;20089;-51
2022/02/25 11:01:38;;;;;;;11.95;2.00;;;;;;;19.04;23.21;99810.69;5093380;28;20387;-51
2022/02/25 11:04:08;;;;;;;10.02;2.15;;;;;;;18.80;22.93;99815.91;5093318;28;20028;-50
2022/02/25 11:06:35;;;;;;;14.15;2.25;;;;;;;18.46;24.12;99806.75;5093198;28;20080;-51
2022/02/25 11:09:04;;;;;;;8.93;1.85;;;;;;;19.15;22.96;99813.34;5093270;28;20051;-52
2022/02/25 11:11:30;;;;;;;9.50;1.80;;;;;;;19.09;23.22;99813.44;5074913;28;20027;-51
2022/02/25 11:13:57;;;;;;;8.02;1.42;;;;;;;19.28;21.69;99798.22;5093131;28;20032;-52
2022/02/25 11:16:24;;;;;;;23.88;2.08;;;;;;;18.07;22.44;99811.47;5093079;28;20028;-50
2022/02/25 11:18:50;;;;;;;19.02;3.08;;;;;;;17.03;23.83;99821.78;5092991;28;20023;-51
2022/02/25 11:21:16;;;;;;;9.57;1.85;;;;;;;18.06;23.94;99823.97;5092975;28;20033;-50
2022/02/25 11:23:43;;;;;;;11.00;2.42;;;;;;;18.62;23.84;99813.28;5074749;28;20028;-51
2022/02/25 11:26:14;;;;;;;8.48;1.75;;;;;;;18.09;24.37;99815.56;5092864;28;20052;-51
2022/02/25 11:28:41;;;;;;;9.65;1.90;;;;;;;17.25;24.15;99804.47;5093449;28;20016;-51
2022/02/25 11:31:25;;;;;;;12.65;2.17;;;;;;;15.97;26.10;99807.97;5092873;28;20473;-50
2022/02/25 11:33:53;;;;;;;6.68;1.38;;;;;;;15.53;26.43;99804.13;5065729;28;20155;-50